Latest Weather Observations for Sydney - Observatory Hill

IDN60801

Issued at 11:34 am EST Friday 4 September 2015 (issued every 30 minutes, with the page automatically refreshed every 10 minutes)

About weather observations | Map of weather stations | Latest weather observations for NSW | Other Formats
Station Details ID: 066062 Name: SYDNEY (OBSERVATORY HILL) Lat: -33.86 Lon: 151.21 Height: 39.0 m
Data from the previous 72 hours. | See also: Recent months at Sydney - Observatory Hill

* Apparent temperature (App Temp) for Sydney - Observatory Hill is calculated using temperature observations collected at Sydney - Observatory Hill and wind observations collected at Fort Denison, as wind observations are not currently provided for Sydney - Observatory Hill.

Date/Time
EST
Temp
°C
App
Temp
°C
Dew
Point
Rel
Hum
%
Delta-T
°C
Wind Press
QNH
hPa
Press
MSL
hPa
Rain
since 9 am
mm
Dir
 
Spd
km/h
Gust
km/h
Spd
kts
Gust
kts
04/11:30am 17.9 12.8 10.5 62 4.0 S 28 - 15 - 1021.8 1021.7 0.0
04/11:00am 16.2 11.7 10.1 67 3.2 S 24 - 13 - 1022.1 1022.0 0.0
04/10:30am 15.3 12.3 10.5 73 2.5 S 17 - 9 - 1022.1 1022.0 0.0
04/10:00am 15.0 11.5 11.0 77 2.1 SSW 20 - 11 - 1022.0 1021.9 0.0
04/09:30am 14.4 11.4 12.1 86 1.2 SSW 19 - 10 - 1021.8 1021.7 0.0
04/09:00am 13.7 10.8 12.4 92 0.7 SSW 19 - 10 - 1021.6 1021.5 20.4
04/08:30am 13.1 11.0 12.3 95 0.4 WNW 15 - 8 - 1021.3 1021.2 20.4
04/08:00am 12.9 11.2 12.3 96 0.3 SW 13 - 7 - 1021.1 1021.0 20.2
04/07:30am 12.9 10.4 12.3 96 0.3 WSW 17 - 9 - 1020.7 1020.6 18.4
04/07:00am 12.9 9.9 12.1 95 0.4 WSW 19 - 10 - 1020.2 1020.1 16.2
04/06:30am 13.0 12.0 12.2 95 0.4 SSW 9 - 5 - 1019.8 1019.7 14.2
04/06:00am 13.1 10.5 12.0 93 0.6 SW 17 - 9 - 1019.3 1019.3 12.2
04/05:30am 13.1 10.5 12.0 93 0.6 SW 17 - 9 - 1018.7 1018.7 11.8
04/05:00am 13.1 10.2 12.2 94 0.5 SW 19 - 10 - 1018.2 1018.2 11.4
04/04:30am 13.1 10.2 12.2 94 0.5 SW 19 - 10 - 1017.8 1017.8 11.4
04/04:00am 13.0 10.0 12.1 94 0.5 W 19 - 10 - 1017.3 1017.3 11.2
04/03:30am 12.9 9.9 11.8 93 0.6 WSW 19 - 10 - 1017.0 1017.0 10.8
04/03:00am 13.0 9.9 11.6 91 0.7 WSW 19 - 10 - 1016.9 1016.9 9.0
04/02:30am 12.7 9.2 10.9 89 0.9 W 20 - 11 - 1016.6 1016.6 9.0
04/02:00am 12.6 9.1 11.0 90 0.8 W 20 - 11 - 1016.4 1016.4 9.0
04/01:30am 12.6 9.4 11.2 91 0.7 W 19 - 10 - 1016.2 1016.2 8.8
04/01:00am 12.7 9.2 10.9 89 0.9 W 20 - 11 - 1016.2 1016.2 8.8
04/12:30am 13.7 10.6 12.1 90 0.9 S 20 - 11 - 1015.3 1015.3 5.6
04/12:00am 13.6 11.2 11.3 86 1.2 SW 15 - 8 - 1014.5 1014.5 3.0
 
Date/Time
EST
Temp
°C
App
Temp
°C
Dew
Point
Rel
Hum
%
Delta-T
°C
Wind Press
QNH
hPa
Press
MSL
hPa
Rain
since 9 am
mm
Dir
 
Spd
km/h
Gust
km/h
Spd
kts
Gust
kts
03/11:30pm 13.3 10.0 9.5 78 1.9 WSW 17 - 9 - 1014.3 1014.3 2.6
03/11:00pm 14.0 10.0 8.4 69 2.8 WSW 19 - 10 - 1013.7 1013.7 0.8
03/10:30pm 14.0 9.5 8.4 69 2.8 WSW 22 - 12 - 1013.5 1013.5 0.8
03/10:00pm 14.2 10.3 8.6 69 2.8 WSW 19 - 10 - 1013.6 1013.6 0.8
03/09:30pm 14.3 10.3 8.3 67 3.0 WSW 19 - 10 - 1013.2 1013.2 0.8
03/09:00pm 14.8 11.1 8.1 64 3.4 SW 17 - 9 - 1013.1 1013.1 0.6
03/08:30pm 15.5 11.0 6.8 56 4.3 WSW 20 - 11 - 1012.1 1012.1 0.4
03/08:00pm 15.6 11.1 6.3 54 4.5 WSW 19 - 10 - 1011.6 1011.6 0.4
03/07:30pm 16.0 10.6 6.2 52 4.8 WSW 24 - 13 - 1011.1 1011.1 0.4
03/07:00pm 15.8 10.4 6.3 53 4.6 WSW 24 - 13 - 1010.6 1010.6 0.4
03/06:30pm 15.9 10.9 6.6 54 4.6 WSW 22 - 12 - 1010.0 1010.0 0.2
03/06:00pm 17.0 12.3 5.0 45 5.7 SW 19 - 10 - 1009.5 1009.5 0.2
03/05:30pm 17.3 12.5 4.9 44 5.9 SSW 19 - 10 - 1008.6 1008.6 0.2
03/05:00pm 17.7 11.0 3.9 40 6.5 WSW 28 - 15 - 1007.8 1007.8 0.2
03/04:30pm 18.4 13.0 2.7 35 7.2 SW 20 - 11 - 1007.0 1007.0 0.2
03/04:00pm 19.2 13.7 1.7 31 8.0 SW 20 - 11 - 1006.4 1006.4 0.2
03/03:30pm 20.5 13.9 2.3 30 8.5 WSW 26 - 14 - 1006.0 1005.9 0.2
03/03:00pm 20.6 14.3 1.5 28 8.8 WSW 24 - 13 - 1005.7 1005.6 0.2
03/02:30pm 19.5 13.7 2.4 32 7.9 WSW 22 - 12 - 1005.3 1005.2 0.2
03/02:00pm 19.4 12.7 3.6 35 7.5 W 28 - 15 - 1005.2 1005.1 0.2
03/01:30pm 18.4 10.8 2.7 35 7.2 W 32 - 17 - 1005.1 1005.0 0.2
03/01:00pm 18.5 13.0 6.0 44 6.2 WNW 24 - 13 - 1005.4 1005.3 0.2
03/12:30pm 17.9 12.3 5.5 44 6.0 WNW 24 - 13 - 1005.7 1005.6 0.2
03/12:00pm 19.1 13.3 6.2 43 6.4 W 26 - 14 - 1005.9 1005.8 0.0
03/11:30am 17.7 12.4 6.9 49 5.4 W 24 - 13 - 1006.1 1006.0 0.0
03/11:00am 16.6 12.6 8.3 58 4.2 WNW 19 - 10 - 1006.2 1006.1 0.0
03/10:30am 15.8 12.1 9.5 66 3.3 WNW 19 - 10 - 1006.3 1006.2 0.0
03/10:00am 15.2 11.0 9.6 69 2.9 WNW 22 - 12 - 1005.9 1005.8 0.0
03/09:30am 14.6 10.8 9.2 70 2.8 WNW 19 - 10 - 1005.9 1005.8 0.0
03/09:00am 14.4 10.3 8.8 69 2.8 WNW 20 - 11 - 1006.1 1006.0 2.8
03/08:30am 14.0 9.6 9.0 72 2.5 W 22 - 12 - 1006.1 1006.0 2.8
03/08:00am 13.5 9.0 9.9 79 1.9 W 24 - 13 - 1005.7 1005.6 2.8
03/07:30am 13.1 10.1 10.6 85 1.3 WNW 17 - 9 - 1005.5 1005.4 2.8
03/07:00am 11.6 9.2 10.0 90 0.8 W 13 - 7 - 1005.0 1004.9 2.8
03/06:30am 11.5 8.3 9.8 89 0.9 W 17 - 9 - 1005.0 1004.9 2.8
03/06:00am 12.0 9.1 9.7 86 1.2 WNW 15 - 8 - 1004.9 1004.8 2.8
03/05:30am 12.5 11.1 9.5 82 1.5 WNW 7 - 4 - 1004.8 1004.7 2.8
03/05:00am 13.0 11.8 10.4 84 1.4 N 7 - 4 - 1005.0 1004.9 2.8
03/04:30am 12.8 11.6 9.6 81 1.6 WNW 6 - 3 - 1005.3 1005.2 2.6
03/04:00am 13.0 11.5 10.5 85 1.3 N 9 - 5 - 1005.1 1005.0 2.6
03/03:30am 13.0 11.5 10.5 85 1.3 NNW 9 - 5 - 1005.7 1005.6 2.6
03/03:00am 13.3 12.5 11.2 87 1.1 WNW 6 - 3 - 1006.0 1005.9 2.6
03/02:30am 13.6 13.4 10.4 81 1.7 E 2 - 1 - 1005.9 1005.8 2.6
03/02:00am 13.2 12.2 10.2 82 1.6 W 6 - 3 - 1007.3 1007.3 2.6
03/01:30am 13.7 13.0 8.7 72 2.5 S 2 - 1 - 1007.8 1007.8 2.4
03/01:00am 13.1 11.6 8.6 74 2.3 E 6 - 3 - 1008.1 1008.1 2.4
03/12:30am 13.6 10.6 9.1 74 2.3 NW 15 - 8 - 1009.7 1009.7 1.6
03/12:00am 14.5 12.3 8.0 65 3.3 W 9 - 5 - 1009.0 1009.0 0.6
 
Date/Time
EST
Temp
°C
App
Temp
°C
Dew
Point
Rel
Hum
%
Delta-T
°C
Wind Press
QNH
hPa
Press
MSL
hPa
Rain
since 9 am
mm
Dir
 
Spd
km/h
Gust
km/h
Spd
kts
Gust
kts
02/11:30pm 16.5 13.3 8.5 59 4.1 N 15 - 8 - 1009.1 1009.1 0.0
02/11:00pm 16.6 13.8 7.0 53 4.8 NNE 11 - 6 - 1008.1 1008.1 0.0
02/10:30pm 16.6 13.0 6.7 52 4.9 NNE 15 - 8 - 1008.8 1008.8 0.0
02/10:00pm 16.8 12.3 6.3 50 5.2 NNE 19 - 10 - 1009.2 1009.2 0.0
02/09:30pm 16.9 12.4 7.0 52 4.9 NNE 20 - 11 - 1009.6 1009.6 0.0
02/09:00pm 17.1 13.2 8.5 57 4.4 NNE 19 - 10 - 1010.2 1010.2 0.0
02/08:30pm 17.1 13.2 8.8 58 4.3 NNE 19 - 10 - 1010.5 1010.5 0.0
02/08:00pm 17.2 14.1 8.9 58 4.3 NE 15 - 8 - 1010.5 1010.5 0.0
02/07:30pm 17.2 13.4 7.5 53 4.9 NNE 17 - 9 - 1010.8 1010.8 0.0
02/07:00pm 17.1 13.9 6.9 51 5.1 NNE 13 - 7 - 1011.2 1011.2 0.0
02/06:30pm 17.3 13.8 7.1 51 5.1 NNE 15 - 8 - 1011.3 1011.3 0.0
02/06:00pm 17.3 13.1 8.2 55 4.7 NNE 20 - 11 - 1011.4 1011.4 0.0
02/05:30pm 17.5 14.3 8.4 55 4.7 NE 15 - 8 - 1011.5 1011.5 0.0
02/05:00pm 18.0 13.7 7.1 49 5.5 NE 19 - 10 - 1011.5 1011.5 0.0
02/04:30pm 18.6 14.5 6.1 44 6.2 NNE 17 - 9 - 1011.7 1011.7 0.0
02/04:00pm 18.4 15.0 5.9 44 6.1 NE 13 - 7 - 1011.6 1011.6 0.0
02/03:30pm 18.5 14.8 7.9 50 5.4 ENE 17 - 9 - 1011.8 1011.8 0.0
02/03:00pm 18.6 14.3 6.8 46 5.9 ENE 19 - 10 - 1012.0 1012.0 0.0
02/02:30pm 18.7 14.6 6.2 44 6.2 ENE 17 - 9 - 1012.4 1012.4 0.0
02/02:00pm 18.3 14.4 7.1 48 5.6 ENE 17 - 9 - 1013.1 1013.1 0.0
02/01:30pm 17.3 13.0 6.8 50 5.2 ENE 19 - 10 - 1013.5 1013.5 0.0
02/01:00pm 16.7 12.1 6.5 51 5.0 ENE 20 - 11 - 1014.0 1014.0 0.0
02/12:30pm 16.7 12.2 6.2 50 5.1 E 19 - 10 - 1014.8 1014.8 0.0
02/12:00pm 16.9 14.3 6.1 49 5.3 ESE 9 - 5 - 1015.3 1015.3 0.0
02/11:30am 16.2 14.0 5.5 49 5.1 WSW 6 - 3 - 1016.0 1016.0 0.0
02/11:00am 14.9 12.0 4.9 51 4.7 W 9 - 5 - 1016.8 1016.8 0.0
02/10:30am 13.6 9.9 4.5 54 4.2 W 13 - 7 - 1017.3 1017.3 0.0
02/10:00am 12.8 8.9 5.2 60 3.5 W 15 - 8 - 1017.7 1017.7 0.0
02/09:30am 12.3 8.7 5.2 62 3.3 WNW 13 - 7 - 1017.8 1017.8 0.0
02/09:00am 11.9 8.6 4.6 61 3.3 W 11 - 6 - 1018.0 1018.0 0.0
02/08:30am 11.9 7.7 3.7 57 3.7 WNW 15 - 8 - 1018.1 1018.1 0.0
02/08:00am 11.3 7.6 4.3 62 3.1 WNW 13 - 7 - 1017.8 1017.8 0.0
02/07:30am 10.1 5.7 4.9 70 2.3 WNW 17 - 9 - 1017.8 1017.8 0.0
02/07:00am 8.7 3.8 4.9 77 1.7 W 20 - 11 - 1017.8 1017.8 0.0
02/06:30am 8.4 4.4 5.0 79 1.5 W 15 - 8 - 1017.6 1017.6 0.0
02/06:00am 8.1 4.2 5.2 82 1.3 W 15 - 8 - 1017.3 1017.3 0.0
02/05:30am 8.1 3.5 5.7 85 1.1 W 19 - 10 - 1017.1 1017.1 0.0
02/05:00am 8.3 4.1 5.9 85 1.1 WNW 17 - 9 - 1016.6 1016.6 0.0
02/04:30am 8.4 5.0 6.0 85 1.1 W 13 - 7 - 1016.3 1016.3 0.0
02/04:00am 8.4 4.6 6.0 85 1.1 W 15 - 8 - 1016.6 1016.6 0.0
02/03:30am 8.6 4.5 6.2 85 1.1 W 17 - 9 - 1016.7 1016.7 0.0
02/03:00am 8.8 4.4 6.4 85 1.1 W 19 - 10 - 1016.8 1016.8 0.0
02/02:30am 9.1 5.4 6.2 82 1.3 WNW 15 - 8 - 1016.8 1016.8 0.0
02/02:00am 9.3 5.2 6.0 80 1.5 W 17 - 9 - 1016.8 1016.8 0.0
02/01:30am 9.5 5.4 6.4 81 1.4 W 17 - 9 - 1016.9 1016.9 0.0
02/01:00am 10.1 6.6 7.2 82 1.4 WNW 15 - 8 - 1016.9 1016.9 0.0
02/12:30am 10.3 7.5 7.0 80 1.6 W 11 - 6 - 1016.6 1016.6 0.0
02/12:00am 10.8 8.3 6.6 75 2.0 WNW 9 - 5 - 1016.7 1016.7 0.0
 
Date/Time
EST
Temp
°C
App
Temp
°C
Dew
Point
Rel
Hum
%
Delta-T
°C
Wind Press
QNH
hPa
Press
MSL
hPa
Rain
since 9 am
mm
Dir
 
Spd
km/h
Gust
km/h
Spd
kts
Gust
kts
01/11:30pm 10.7 6.7 6.8 77 1.8 W 17 - 9 - 1016.4 1016.4 0.0
01/11:00pm 11.2 7.8 7.5 78 1.8 W 15 - 8 - 1016.4 1016.4 0.0
01/10:30pm 11.4 8.0 7.5 77 1.9 WNW 15 - 8 - 1016.3 1016.3 0.0
01/10:00pm 11.8 8.4 7.5 75 2.1 W 15 - 8 - 1016.3 1016.3 0.0
01/09:30pm 12.0 9.0 7.5 74 2.2 W 13 - 7 - 1016.0 1016.0 0.0
01/09:00pm 13.0 12.1 7.7 70 2.6 N 2 - 1 - 1015.5 1015.5 0.0
01/08:30pm 13.7 12.5 6.6 62 3.4 NE 2 - 1 - 1015.2 1015.2 0.0
01/08:00pm 14.2 12.4 5.3 55 4.2 NNE 4 - 2 - 1015.0 1015.0 0.0
01/07:30pm 14.5 12.6 5.0 53 4.5 ESE 4 - 2 - 1014.7 1014.7 0.0
01/07:00pm 15.2 13.3 5.1 51 4.8 SE 4 - 2 - 1014.4 1014.4 0.0
01/06:30pm 15.3 13.1 5.2 51 4.8 SE 6 - 3 - 1014.2 1014.2 0.0
01/06:00pm 15.4 12.6 5.0 50 4.9 ESE 9 - 5 - 1013.9 1013.9 0.0
01/05:30pm 15.5 12.6 4.8 49 5.0 ESE 9 - 5 - 1013.8 1013.8 0.0
01/05:00pm 15.7 12.5 5.0 49 5.1 ESE 11 - 6 - 1013.6 1013.6 0.0
01/04:30pm 15.9 11.7 4.0 45 5.5 ESE 15 - 8 - 1013.4 1013.4 0.0
01/04:00pm 16.4 11.8 3.8 43 5.8 ESE 17 - 9 - 1013.2 1013.2 0.0
01/03:30pm 16.9 12.2 2.9 39 6.4 ESE 17 - 9 - 1013.2 1013.2 0.0
01/03:00pm 17.0 13.0 3.0 39 6.4 ESE 13 - 7 - 1013.3 1013.3 0.0
01/02:30pm 16.7 11.6 3.0 40 6.3 ESE 19 - 10 - 1013.3 1013.3 0.0
01/02:00pm 17.7 12.9 2.5 36 6.9 ESE 17 - 9 - 1013.4 1013.4 0.0
01/01:30pm 19.0 15.8 0.6 29 8.2 N 7 - 4 - 1013.5 1013.5 0.0
01/01:00pm 18.5 15.0 1.5 32 7.7 WNW 9 - 5 - 1013.9 1013.9 0.0
01/12:30pm 17.8 13.2 1.7 34 7.2 W 15 - 8 - 1014.4 1014.4 0.0
01/12:00pm 16.9 11.5 1.4 35 6.9 WSW 19 - 10 - 1014.8 1014.8 0.0

Other Formats:

Comma delimited format used in spreadsheet applications
http://www.bom.gov.au/fwo/IDN60801/IDN60801.94768.axf

JavaScript Object Notation format (JSON) in row-major order
http://www.bom.gov.au/fwo/IDN60801/IDN60801.94768.json